createdAt,value
2023-02-05T00:01:01.523Z,18.40
2023-02-05T00:03:29.958Z,21.20
2023-02-05T00:05:58.394Z,20.23
2023-02-05T00:08:27.640Z,19.47
2023-02-05T00:10:57.453Z,21.10
2023-02-05T00:13:25.900Z,21.77
2023-02-05T00:15:54.325Z,21.37
2023-02-05T00:18:24.095Z,21.60
2023-02-05T00:20:52.492Z,20.87
2023-02-05T00:23:20.928Z,22.40
2023-02-05T00:25:49.345Z,21.80
2023-02-05T00:28:17.665Z,21.87
2023-02-05T00:30:46.273Z,23.47
2023-02-05T00:33:14.755Z,24.80
2023-02-05T00:35:45.869Z,23.03
2023-02-05T00:38:14.989Z,24.27
2023-02-05T00:40:43.374Z,24.40
2023-02-05T00:43:11.884Z,25.10
2023-02-05T00:45:40.262Z,24.23
2023-02-05T00:48:08.828Z,26.33
2023-02-05T00:50:37.471Z,24.40
2023-02-05T00:53:08.513Z,25.00
2023-02-05T00:55:36.910Z,24.90
2023-02-05T00:58:05.517Z,25.23
2023-02-05T01:00:34.182Z,25.17
2023-02-05T01:03:03.138Z,26.53
2023-02-05T01:05:31.761Z,25.60
2023-02-05T01:08:00.360Z,26.20
2023-02-05T01:10:30.202Z,26.30
2023-02-05T01:12:58.716Z,26.87
2023-02-05T01:15:27.402Z,28.27
2023-02-05T01:17:56.034Z,27.80
2023-02-05T01:20:24.351Z,29.73
2023-02-05T01:22:52.737Z,27.97
2023-02-05T01:25:21.351Z,28.83
2023-02-05T01:27:51.099Z,28.57
2023-02-05T01:30:19.647Z,26.97
2023-02-05T01:32:48.113Z,28.63
2023-02-05T01:35:16.759Z,28.20
2023-02-05T01:37:45.128Z,28.53
2023-02-05T01:40:16.028Z,28.47
2023-02-05T01:42:45.006Z,28.13
2023-02-05T01:45:51.863Z,28.37
2023-02-05T01:48:27.782Z,28.47
2023-02-05T01:51:00.533Z,29.13
2023-02-05T01:53:33.059Z,28.73
2023-02-05T01:56:04.864Z,30.33
2023-02-05T01:58:37.230Z,30.47
2023-02-05T02:01:05.997Z,29.97
2023-02-05T02:03:36.793Z,31.10
2023-02-05T02:06:05.774Z,31.93
2023-02-05T02:08:34.325Z,33.30
2023-02-05T02:11:05.857Z,32.47
2023-02-05T02:13:37.113Z,33.17
2023-02-05T02:16:08.081Z,34.20
2023-02-05T02:18:39.477Z,35.77
2023-02-05T02:21:42.014Z,35.10
2023-02-05T02:24:45.417Z,35.73
2023-02-05T02:27:43.357Z,35.30
2023-02-05T02:30:18.402Z,36.60
2023-02-05T02:32:54.013Z,38.00
2023-02-05T02:35:28.940Z,37.00
2023-02-05T02:38:03.088Z,37.53
2023-02-05T02:40:37.392Z,40.43
2023-02-05T02:43:11.091Z,41.23
2023-02-05T02:45:48.289Z,42.50
2023-02-05T02:48:19.396Z,42.33
2023-02-05T02:50:53.304Z,41.33
2023-02-05T02:53:25.730Z,42.63
2023-02-05T02:55:56.780Z,42.80
2023-02-05T02:58:29.129Z,44.47
2023-02-05T03:01:02.531Z,43.67
2023-02-05T03:03:33.843Z,43.07
2023-02-05T03:06:07.195Z,46.27
2023-02-05T03:08:39.866Z,46.80
2023-02-05T03:11:14.546Z,47.23
2023-02-05T03:13:46.031Z,47.53
2023-02-05T03:16:21.369Z,47.30
2023-02-05T03:18:50.762Z,50.63
2023-02-05T03:21:23.826Z,48.33
2023-02-05T03:23:52.330Z,49.77
2023-02-05T03:26:28.674Z,49.00
2023-02-05T03:29:07.904Z,48.23
2023-02-05T03:31:48.172Z,49.00
2023-02-05T03:34:28.620Z,48.60
2023-02-05T03:37:08.994Z,49.43
2023-02-05T03:39:53.084Z,50.73
2023-02-05T03:42:33.290Z,51.13
2023-02-05T03:45:23.188Z,52.90
2023-02-05T03:48:08.229Z,53.73
2023-02-05T03:50:41.258Z,52.80
2023-02-05T03:53:16.699Z,53.27
2023-02-05T03:55:49.757Z,53.37
2023-02-05T03:58:24.624Z,54.10
2023-02-05T04:00:53.065Z,53.20
2023-02-05T04:03:24.150Z,56.53
2023-02-05T04:05:52.950Z,56.83
2023-02-05T04:08:21.430Z,56.70
2023-02-05T04:10:54.000Z,57.27
2023-02-05T04:13:22.938Z,54.20
2023-02-05T04:15:51.992Z,56.93
2023-02-05T04:18:20.936Z,57.93
2023-02-05T04:20:51.863Z,55.17
2023-02-05T04:23:24.261Z,57.17
2023-02-05T04:25:55.166Z,56.10
2023-02-05T04:28:30.186Z,56.20
2023-02-05T04:30:59.023Z,55.60
2023-02-05T04:33:27.493Z,57.33
2023-02-05T04:36:00.922Z,55.60
2023-02-05T04:38:30.280Z,56.30
2023-02-05T04:40:59.368Z,58.90
2023-02-05T04:43:27.938Z,56.67
2023-02-05T04:45:56.271Z,54.17
2023-02-05T04:48:24.731Z,52.17
2023-02-05T04:50:53.076Z,53.30
2023-02-05T04:53:22.869Z,50.03
2023-02-05T04:55:51.134Z,50.10
2023-02-05T04:58:21.126Z,49.90
2023-02-05T05:00:49.584Z,50.40
2023-02-05T05:03:17.891Z,49.40
2023-02-05T05:05:47.179Z,44.87
2023-02-05T05:08:15.543Z,44.93
2023-02-05T05:10:45.216Z,43.90
2023-02-05T05:13:13.550Z,42.83
2023-02-05T05:15:41.953Z,41.30
2023-02-05T05:18:10.260Z,40.00
2023-02-05T05:20:38.594Z,39.50
2023-02-05T05:23:06.959Z,37.73
2023-02-05T05:25:35.642Z,36.50
2023-02-05T05:28:05.927Z,35.93
2023-02-05T05:30:34.242Z,34.03
2023-02-05T05:33:02.581Z,34.00
2023-02-05T05:35:31.104Z,31.77
2023-02-05T05:38:00.057Z,33.80
2023-02-05T05:40:45.261Z,32.03
2023-02-05T05:43:34.584Z,31.10
2023-02-05T05:46:03.302Z,28.80
2023-02-05T05:48:32.277Z,30.30
2023-02-05T05:51:00.589Z,28.97
2023-02-05T05:53:29.134Z,30.17
2023-02-05T05:55:57.542Z,27.13
2023-02-05T05:58:27.381Z,28.13
2023-02-05T06:00:56.077Z,27.27
2023-02-05T06:03:24.587Z,24.83
2023-02-05T06:05:52.915Z,24.80
2023-02-05T06:08:21.241Z,23.43
2023-02-05T06:10:49.771Z,23.97
2023-02-05T06:13:18.109Z,23.17
2023-02-05T06:15:49.255Z,22.53
2023-02-05T06:18:17.713Z,22.77
2023-02-05T06:20:46.339Z,21.77
2023-02-05T06:23:14.919Z,20.37
2023-02-05T06:25:43.280Z,22.53
2023-02-05T06:28:11.875Z,20.57
2023-02-05T06:30:40.557Z,21.70
2023-02-05T06:33:11.644Z,23.00
2023-02-05T06:35:40.040Z,21.83
2023-02-05T06:38:08.529Z,23.37
2023-02-05T06:40:36.992Z,23.27
2023-02-05T06:43:05.332Z,22.27
2023-02-05T06:45:34.007Z,22.50
2023-02-05T06:48:02.472Z,21.53
2023-02-05T06:50:32.353Z,22.80
2023-02-05T06:53:00.722Z,23.07
2023-02-05T06:55:29.054Z,23.60
2023-02-05T06:57:57.504Z,25.13
2023-02-05T07:00:26.114Z,23.03
2023-02-05T07:02:55.267Z,23.67
2023-02-05T07:05:23.840Z,24.43
2023-02-05T07:07:53.602Z,24.43
2023-02-05T07:10:22.004Z,24.40
2023-02-05T07:12:50.299Z,24.50
2023-02-05T07:15:18.847Z,24.90
2023-02-05T07:17:47.208Z,25.53
2023-02-05T07:20:16.806Z,24.43
2023-02-05T07:22:47.180Z,24.23
2023-02-05T07:25:16.974Z,23.77
2023-02-05T07:27:45.349Z,22.47
2023-02-05T07:30:15.057Z,21.00
2023-02-05T07:32:43.486Z,21.03
2023-02-05T07:35:12.002Z,20.60
2023-02-05T07:37:40.611Z,18.50
2023-02-05T07:40:10.426Z,18.50
2023-02-05T07:42:40.100Z,14.63
2023-02-05T07:45:10.585Z,9.13
2023-02-05T07:47:39.069Z,7.03
2023-02-05T07:50:08.028Z,5.50
2023-02-05T07:52:36.385Z,4.77
2023-02-05T07:55:04.863Z,4.00
2023-02-05T07:57:33.282Z,2.93
2023-02-05T08:00:02.988Z,2.50
2023-02-05T08:02:40.609Z,2.40
2023-02-05T08:05:09.566Z,1.67
2023-02-05T08:07:38.611Z,1.80
2023-02-05T08:10:07.730Z,1.97
2023-02-05T08:12:36.147Z,1.33
2023-02-05T08:15:06.238Z,1.47
2023-02-05T08:17:34.643Z,1.33
2023-02-05T08:20:07.182Z,1.27
2023-02-05T08:22:36.844Z,1.37
2023-02-05T08:25:07.179Z,1.40
2023-02-05T08:27:36.454Z,1.13
2023-02-05T08:30:07.487Z,1.33
2023-02-05T08:32:36.037Z,1.07
2023-02-05T08:35:04.506Z,1.00
2023-02-05T08:37:32.876Z,1.20
2023-02-05T08:40:01.307Z,2.17
2023-02-05T08:42:29.835Z,2.07
2023-02-05T08:44:59.591Z,1.67
2023-02-05T08:47:29.492Z,2.03
2023-02-05T08:49:58.463Z,2.27
2023-02-05T08:52:32.588Z,1.57
2023-02-05T08:55:02.781Z,1.50
2023-02-05T08:57:32.227Z,2.17
2023-02-05T09:00:00.729Z,2.07
2023-02-05T09:02:32.132Z,2.47
2023-02-05T09:05:08.559Z,3.00
2023-02-05T09:07:38.821Z,2.20
2023-02-05T09:10:08.608Z,2.10
2023-02-05T09:12:37.409Z,2.23
2023-02-05T09:15:06.647Z,2.90
2023-02-05T09:17:36.823Z,2.20
2023-02-05T09:20:06.470Z,2.50
2023-02-05T09:22:34.916Z,3.07
2023-02-05T09:25:03.426Z,2.20
2023-02-05T09:27:32.021Z,2.30
2023-02-05T09:30:00.528Z,2.40
2023-02-05T09:32:29.025Z,2.77
2023-02-05T09:34:58.879Z,3.23
2023-02-05T09:37:27.381Z,2.60
2023-02-05T09:40:19.935Z,3.10
2023-02-05T09:42:52.247Z,2.87
2023-02-05T09:45:38.517Z,3.03
2023-02-05T09:48:23.860Z,2.87
2023-02-05T09:50:54.470Z,2.70
2023-02-05T09:53:24.007Z,2.80
2023-02-05T09:55:52.611Z,2.40
2023-02-05T09:58:25.531Z,3.10
2023-02-05T10:01:00.740Z,2.70
2023-02-05T10:03:33.351Z,3.13
2023-02-05T10:06:22.241Z,3.10
2023-02-05T10:08:59.227Z,3.37
2023-02-05T10:11:32.575Z,2.97
2023-02-05T10:14:10.564Z,3.23
2023-02-05T10:16:54.682Z,3.60
2023-02-05T10:19:44.148Z,3.63
2023-02-05T10:22:22.697Z,3.43
2023-02-05T10:25:14.251Z,3.17
2023-02-05T10:27:54.765Z,3.03
2023-02-05T10:30:29.681Z,3.03
2023-02-05T10:33:00.777Z,3.97
2023-02-05T10:35:44.360Z,3.87
2023-02-05T10:38:18.331Z,3.47
2023-02-05T10:40:47.329Z,3.63
2023-02-05T10:43:23.157Z,3.53
2023-02-05T10:45:52.833Z,4.10
2023-02-05T10:48:34.067Z,3.73
2023-02-05T10:51:05.139Z,4.23
2023-02-05T10:53:36.337Z,4.17
2023-02-05T10:56:06.372Z,4.00
2023-02-05T10:58:41.618Z,4.03
2023-02-05T11:01:16.881Z,3.33
2023-02-05T11:03:53.599Z,5.50
2023-02-05T11:06:24.573Z,3.90
2023-02-05T11:08:54.734Z,3.63
2023-02-05T11:11:28.161Z,3.77
2023-02-05T11:14:00.434Z,4.50
2023-02-05T11:16:39.424Z,4.57
2023-02-05T11:19:21.490Z,3.50
2023-02-05T11:21:54.325Z,3.97
2023-02-05T11:24:30.593Z,5.03
2023-02-05T11:27:26.663Z,4.07
2023-02-05T11:29:55.745Z,4.63
2023-02-05T11:32:33.807Z,4.43
2023-02-05T11:35:20.700Z,3.97
2023-02-05T11:37:50.955Z,3.57
2023-02-05T11:40:24.488Z,3.10
2023-02-05T11:43:01.283Z,4.70
2023-02-05T11:45:31.018Z,4.30
2023-02-05T11:48:02.500Z,3.70
2023-02-05T11:50:33.053Z,3.93
2023-02-05T11:53:16.383Z,4.23
2023-02-05T11:55:47.237Z,5.40
2023-02-05T11:58:36.173Z,4.60
2023-02-05T12:01:07.397Z,3.87
2023-02-05T12:03:36.710Z,4.67
2023-02-05T12:06:15.658Z,3.70
2023-02-05T12:08:49.374Z,3.77
2023-02-05T12:12:01.164Z,4.33
2023-02-05T12:14:44.482Z,3.30
2023-02-05T12:17:29.207Z,4.40
2023-02-05T12:20:03.033Z,5.47
2023-02-05T12:22:54.358Z,3.67
2023-02-05T12:25:30.018Z,4.60
2023-02-05T12:28:15.539Z,3.37
2023-02-05T12:31:03.648Z,3.57
2023-02-05T12:33:45.037Z,3.50
2023-02-05T12:36:28.113Z,3.60
2023-02-05T12:39:10.207Z,2.27
2023-02-05T12:41:48.794Z,3.23
2023-02-05T12:44:32.288Z,2.73
2023-02-05T12:47:15.948Z,2.50
2023-02-05T12:50:04.898Z,2.90
2023-02-05T12:52:51.340Z,2.70
2023-02-05T12:55:33.376Z,2.57
2023-02-05T12:58:05.039Z,3.17
2023-02-05T13:00:42.674Z,2.73
2023-02-05T13:03:20.228Z,6.17
2023-02-05T13:05:53.605Z,3.27
2023-02-05T13:08:26.415Z,2.80
2023-02-05T13:10:58.975Z,3.77
2023-02-05T13:13:36.995Z,2.87
2023-02-05T13:16:11.432Z,3.37
2023-02-05T13:18:44.689Z,3.97
2023-02-05T13:21:35.690Z,3.87
2023-02-05T13:24:40.894Z,4.17
2023-02-05T13:27:38.532Z,4.47
2023-02-05T13:30:13.730Z,4.63
2023-02-05T13:32:49.076Z,3.77
2023-02-05T13:35:18.099Z,5.63
2023-02-05T13:37:59.967Z,4.23
2023-02-05T13:40:45.269Z,4.27
2023-02-05T13:43:52.569Z,4.90
2023-02-05T13:46:41.295Z,5.00
2023-02-05T13:49:44.408Z,5.53
2023-02-05T13:52:30.463Z,4.57
2023-02-05T13:55:13.052Z,5.53
2023-02-05T13:58:14.250Z,7.13
2023-02-05T14:00:45.816Z,6.00
2023-02-05T14:03:35.259Z,4.90
2023-02-05T14:06:23.289Z,5.53
2023-02-05T14:08:58.040Z,5.50
2023-02-05T14:11:26.920Z,5.17
2023-02-05T14:14:25.054Z,5.20
2023-02-05T14:16:55.089Z,5.90
2023-02-05T14:19:26.927Z,6.00
2023-02-05T14:22:07.889Z,6.40
2023-02-05T14:24:43.602Z,6.97
2023-02-05T14:27:49.369Z,4.80
2023-02-05T14:30:52.987Z,3.77
2023-02-05T14:33:36.978Z,3.70
2023-02-05T14:36:34.359Z,3.60
2023-02-05T14:39:07.510Z,3.53
2023-02-05T14:41:50.793Z,3.80
2023-02-05T14:44:23.585Z,3.27
2023-02-05T14:47:07.217Z,3.80
2023-02-05T14:49:43.818Z,4.13
2023-02-05T14:52:26.882Z,4.23
2023-02-05T14:55:02.720Z,4.73
2023-02-05T14:57:43.852Z,3.97
2023-02-05T15:00:29.128Z,4.47
2023-02-05T15:03:15.455Z,4.30
2023-02-05T15:05:51.316Z,4.77
2023-02-05T15:08:27.620Z,4.60
2023-02-05T15:11:06.478Z,4.30
2023-02-05T15:13:35.189Z,4.70
2023-02-05T15:16:24.381Z,3.83
2023-02-05T15:18:54.192Z,4.17
2023-02-05T15:21:29.140Z,3.80
2023-02-05T15:24:02.691Z,4.13
2023-02-05T15:26:42.353Z,3.80
2023-02-05T15:29:15.879Z,5.70
2023-02-05T15:31:49.675Z,4.97
2023-02-05T15:34:30.264Z,4.80
2023-02-05T15:37:05.608Z,5.40
2023-02-05T15:39:46.446Z,5.57
2023-02-05T15:42:20.428Z,5.40
2023-02-05T15:44:49.364Z,5.03
2023-02-05T15:47:22.250Z,5.97
2023-02-05T15:49:53.337Z,5.20
2023-02-05T15:52:24.744Z,4.93
2023-02-05T15:54:56.284Z,4.60
2023-02-05T15:57:29.997Z,4.30
2023-02-05T16:00:00.711Z,4.47
2023-02-05T16:02:30.330Z,5.20
2023-02-05T16:05:00.174Z,5.53
2023-02-05T16:07:30.522Z,6.73
2023-02-05T16:10:00.879Z,4.60
2023-02-05T16:12:31.872Z,4.17
2023-02-05T16:15:02.591Z,5.67
2023-02-05T16:17:40.773Z,4.60
2023-02-05T16:20:23.950Z,5.03
2023-02-05T16:22:58.440Z,4.53
2023-02-05T16:25:36.109Z,5.87
2023-02-05T16:28:14.859Z,4.63
2023-02-05T16:30:45.615Z,4.67
2023-02-05T16:33:25.456Z,5.13
2023-02-05T16:35:55.200Z,5.23
2023-02-05T16:38:24.419Z,4.10
2023-02-05T16:40:55.796Z,5.43
2023-02-05T16:43:32.940Z,4.77
2023-02-05T16:46:35.414Z,6.70
2023-02-05T16:49:05.705Z,4.60
2023-02-05T16:51:56.397Z,4.60
2023-02-05T16:54:31.071Z,4.70
2023-02-05T16:57:04.113Z,4.73
2023-02-05T16:59:38.899Z,5.30
2023-02-05T17:02:07.724Z,4.80
2023-02-05T17:04:38.957Z,4.97
2023-02-05T17:07:18.641Z,4.47
2023-02-05T17:09:47.171Z,5.13
2023-02-05T17:12:26.847Z,5.03
2023-02-05T17:14:58.569Z,5.23
2023-02-05T17:17:28.032Z,6.07
2023-02-05T17:20:18.915Z,5.30
2023-02-05T17:23:08.918Z,5.00
2023-02-05T17:25:39.929Z,5.60
2023-02-05T17:28:15.327Z,5.17
2023-02-05T17:30:46.821Z,5.20
2023-02-05T17:33:18.314Z,4.93
2023-02-05T17:35:46.912Z,8.13
2023-02-05T17:38:16.021Z,5.90
2023-02-05T17:40:45.474Z,6.07
2023-02-05T17:43:14.008Z,5.57
2023-02-05T17:45:44.933Z,5.23
2023-02-05T17:48:13.618Z,6.50
2023-02-05T17:50:42.055Z,5.27
2023-02-05T17:53:14.137Z,7.43
2023-02-05T17:55:42.668Z,5.13
2023-02-05T17:58:11.402Z,4.90
2023-02-05T18:00:39.963Z,4.23
2023-02-05T18:03:09.961Z,5.13
2023-02-05T18:05:38.541Z,5.83
2023-02-05T18:08:07.573Z,4.87
2023-02-05T18:10:37.069Z,5.93
2023-02-05T18:13:05.842Z,6.03
2023-02-05T18:15:34.296Z,4.53
2023-02-05T18:18:02.772Z,5.23
2023-02-05T18:20:32.724Z,5.13
2023-02-05T18:23:03.130Z,5.73
2023-02-05T18:25:31.644Z,8.63
2023-02-05T18:28:00.247Z,7.70
2023-02-05T18:30:29.809Z,6.20
2023-02-05T18:32:58.333Z,6.40
2023-02-05T18:35:26.847Z,6.90
2023-02-05T18:37:56.760Z,6.87
2023-02-05T18:40:25.454Z,6.47
2023-02-05T18:42:59.713Z,6.97
2023-02-05T18:45:28.150Z,5.60
2023-02-05T18:47:56.605Z,6.27
2023-02-05T18:50:28.003Z,5.27
2023-02-05T18:52:57.884Z,6.10
2023-02-05T18:55:26.976Z,5.70
2023-02-05T18:57:55.412Z,5.40
2023-02-05T19:00:24.097Z,6.67
2023-02-05T19:02:52.718Z,5.20
2023-02-05T19:05:21.264Z,6.87
2023-02-05T19:07:52.219Z,5.60
2023-02-05T19:10:22.327Z,5.87
2023-02-05T19:12:53.054Z,6.40
2023-02-05T19:15:21.646Z,6.67
2023-02-05T19:17:50.208Z,6.40
2023-02-05T19:20:19.238Z,5.50
2023-02-05T19:22:47.661Z,5.67
2023-02-05T19:25:16.300Z,5.43
2023-02-05T19:27:46.309Z,6.40
2023-02-05T19:30:15.262Z,5.90
2023-02-05T19:32:43.624Z,5.17
2023-02-05T19:35:12.138Z,5.43
2023-02-05T19:37:40.675Z,7.20
2023-02-05T19:40:12.505Z,10.83
2023-02-05T19:42:44.726Z,7.63
2023-02-05T19:45:15.274Z,7.13
2023-02-05T19:47:43.917Z,5.70
2023-02-05T19:50:12.424Z,5.03
2023-02-05T19:52:41.037Z,6.00
2023-02-05T19:55:09.690Z,5.90
2023-02-05T19:57:40.640Z,5.53
2023-02-05T20:00:10.673Z,7.33
2023-02-05T20:02:43.532Z,5.50
2023-02-05T20:05:12.472Z,6.40
2023-02-05T20:07:41.269Z,7.17
2023-02-05T20:10:10.531Z,5.70
2023-02-05T20:12:39.089Z,6.80
2023-02-05T20:15:08.860Z,5.83
2023-02-05T20:17:37.900Z,6.97
2023-02-05T20:20:15.723Z,6.47
2023-02-05T20:22:49.811Z,5.83
2023-02-05T20:25:18.599Z,5.23
2023-02-05T20:27:47.237Z,7.83
2023-02-05T20:30:35.997Z,6.07
2023-02-05T20:33:04.915Z,4.83
2023-02-05T20:35:36.224Z,5.77
2023-02-05T20:38:04.813Z,4.17
2023-02-05T20:40:33.491Z,6.67
2023-02-05T20:43:02.645Z,5.53
2023-02-05T20:45:32.925Z,7.70
2023-02-05T20:48:02.283Z,7.03
2023-02-05T20:50:30.765Z,5.97
2023-02-05T20:53:00.796Z,5.47
2023-02-05T20:55:29.890Z,6.50
2023-02-05T20:57:58.294Z,5.27
2023-02-05T21:00:27.589Z,7.23
2023-02-05T21:02:56.194Z,6.93
2023-02-05T21:05:24.754Z,6.67
2023-02-05T21:07:53.170Z,6.20
2023-02-05T21:10:22.977Z,8.37
2023-02-05T21:12:51.486Z,6.67
2023-02-05T21:15:19.865Z,8.30
2023-02-05T21:17:48.740Z,7.13
2023-02-05T21:20:18.059Z,6.97
2023-02-05T21:22:46.736Z,6.57
2023-02-05T21:25:15.316Z,7.20
2023-02-05T21:27:45.086Z,6.33
2023-02-05T21:30:14.385Z,6.47
2023-02-05T21:32:42.814Z,6.77
2023-02-05T21:35:11.470Z,9.83
2023-02-05T21:37:40.058Z,6.83
2023-02-05T21:40:09.896Z,6.70
2023-02-05T21:42:38.554Z,4.70
2023-02-05T21:45:09.610Z,6.03
2023-02-05T21:47:38.320Z,5.97
2023-02-05T21:50:08.204Z,5.30
2023-02-05T21:52:36.988Z,4.43
2023-02-05T21:55:06.177Z,5.47
2023-02-05T21:57:35.723Z,5.17
2023-02-05T22:00:04.891Z,4.70
2023-02-05T22:02:42.129Z,3.07
2023-02-05T22:05:11.040Z,5.07
2023-02-05T22:07:39.515Z,4.47
2023-02-05T22:10:08.270Z,4.80
2023-02-05T22:12:37.080Z,3.80
2023-02-05T22:15:06.254Z,6.47
2023-02-05T22:17:34.792Z,5.50
2023-02-05T22:20:04.946Z,4.67
2023-02-05T22:22:33.348Z,5.50
2023-02-05T22:25:01.881Z,5.13
2023-02-05T22:27:30.663Z,3.90
2023-02-05T22:29:59.417Z,3.83
2023-02-05T22:32:29.250Z,4.13
2023-02-05T22:35:00.924Z,4.17
2023-02-05T22:37:31.011Z,4.63
2023-02-05T22:40:00.137Z,4.57
2023-02-05T22:42:28.601Z,4.67
2023-02-05T22:44:57.094Z,4.17
2023-02-05T22:47:25.522Z,4.47
2023-02-05T22:49:53.940Z,4.17
2023-02-05T22:52:22.354Z,3.60
2023-02-05T22:54:52.274Z,5.20
2023-02-05T22:57:20.626Z,4.93
2023-02-05T22:59:48.974Z,5.67
2023-02-05T23:02:17.368Z,4.40
2023-02-05T23:04:45.715Z,4.57
2023-02-05T23:07:14.072Z,3.80
2023-02-05T23:09:42.420Z,5.43
2023-02-05T23:12:12.134Z,5.83
2023-02-05T23:14:40.426Z,4.77
2023-02-05T23:17:08.706Z,5.07
2023-02-05T23:19:37.076Z,5.17
2023-02-05T23:22:09.666Z,5.03
2023-02-05T23:24:38.192Z,6.07
2023-02-05T23:27:06.868Z,5.60
2023-02-05T23:29:37.754Z,3.83
2023-02-05T23:32:07.128Z,4.63
2023-02-05T23:34:35.667Z,4.20
2023-02-05T23:37:04.060Z,4.13
2023-02-05T23:39:32.396Z,5.20
2023-02-05T23:42:00.763Z,4.33
2023-02-05T23:44:29.132Z,4.30
2023-02-05T23:46:59.979Z,4.83
2023-02-05T23:49:28.516Z,5.47
2023-02-05T23:51:57.202Z,4.67
2023-02-05T23:54:25.785Z,4.33
2023-02-05T23:56:54.216Z,4.97
2023-02-05T23:59:23.006Z,4.30
